createdAt,value
2018-11-13T00:01:23.532Z,20.10
2018-11-13T00:03:51.773Z,17.57
2018-11-13T00:06:19.994Z,14.07
2018-11-13T00:08:48.801Z,15.37
2018-11-13T00:11:17.075Z,15.87
2018-11-13T00:13:45.194Z,12.00
2018-11-13T00:16:13.375Z,16.77
2018-11-13T00:18:41.622Z,13.90
2018-11-13T00:21:09.880Z,15.17
2018-11-13T00:23:38.017Z,13.83
2018-11-13T00:26:06.247Z,14.93
2018-11-13T00:28:34.480Z,15.13
2018-11-13T00:31:02.675Z,15.67
2018-11-13T00:33:30.894Z,17.03
2018-11-13T00:35:59.152Z,14.20
2018-11-13T00:38:27.326Z,19.73
2018-11-13T00:40:56.126Z,15.53
2018-11-13T00:43:24.297Z,16.23
2018-11-13T00:45:55.913Z,15.30
2018-11-13T00:48:23.647Z,16.90
2018-11-13T00:50:51.795Z,15.03
2018-11-13T00:53:20.002Z,13.67
2018-11-13T00:55:48.118Z,14.77
2018-11-13T00:58:16.267Z,19.63
2018-11-13T01:00:44.492Z,15.60
2018-11-13T01:03:12.597Z,14.30
2018-11-13T01:05:40.759Z,13.20
2018-11-13T01:08:08.915Z,15.60
2018-11-13T01:10:37.231Z,14.37
2018-11-13T01:13:05.784Z,16.67
2018-11-13T01:15:33.996Z,16.17
2018-11-13T01:18:02.135Z,15.13
2018-11-13T01:20:30.309Z,14.67
2018-11-13T01:22:58.499Z,14.23
2018-11-13T01:25:27.012Z,14.03
2018-11-13T01:27:55.188Z,16.93
2018-11-13T01:30:23.431Z,14.87
2018-11-13T01:32:51.741Z,13.87
2018-11-13T01:35:20.083Z,16.70
2018-11-13T01:37:48.293Z,13.43
2018-11-13T01:40:18.319Z,16.97
2018-11-13T01:42:46.441Z,15.63
2018-11-13T01:45:15.603Z,29.00
2018-11-13T01:47:43.746Z,15.77
2018-11-13T01:50:12.379Z,15.80
2018-11-13T01:52:40.538Z,15.60
2018-11-13T01:55:10.549Z,17.23
2018-11-13T01:57:38.693Z,18.50
2018-11-13T02:00:15.755Z,15.00
2018-11-13T02:02:44.799Z,15.57
2018-11-13T02:05:12.919Z,16.33
2018-11-13T02:07:41.255Z,16.03
2018-11-13T02:10:09.662Z,15.17
2018-11-13T02:12:37.836Z,14.87
2018-11-13T02:15:07.141Z,14.87
2018-11-13T02:17:35.531Z,14.67
2018-11-13T02:20:04.303Z,13.07
2018-11-13T02:22:32.406Z,14.70
2018-11-13T02:25:00.719Z,15.67
2018-11-13T02:27:28.824Z,17.10
2018-11-13T02:29:56.933Z,15.73
2018-11-13T02:32:25.059Z,13.70
2018-11-13T02:34:53.249Z,17.17
2018-11-13T02:37:21.918Z,15.30
2018-11-13T02:39:50.019Z,17.37
2018-11-13T02:42:18.145Z,13.90
2018-11-13T02:44:46.271Z,12.27
2018-11-13T02:47:14.529Z,14.07
2018-11-13T02:49:42.823Z,15.47
2018-11-13T02:52:11.035Z,20.27
2018-11-13T02:54:39.136Z,17.97
2018-11-13T02:57:07.263Z,14.37
2018-11-13T02:59:35.428Z,13.33
2018-11-13T03:02:03.658Z,13.73
2018-11-13T03:04:31.777Z,13.60
2018-11-13T03:06:59.904Z,16.13
2018-11-13T03:09:28.059Z,16.40
2018-11-13T03:11:56.295Z,15.70
2018-11-13T03:14:24.596Z,18.50
2018-11-13T03:16:52.697Z,16.57
2018-11-13T03:19:20.872Z,13.53
2018-11-13T03:21:49.180Z,14.23
2018-11-13T03:24:17.310Z,16.23
2018-11-13T03:26:45.500Z,17.07
2018-11-13T03:29:13.590Z,15.00
2018-11-13T03:31:41.899Z,16.07
2018-11-13T03:34:10.179Z,15.20
2018-11-13T03:36:38.794Z,14.63
2018-11-13T03:39:08.221Z,16.47
2018-11-13T03:41:36.594Z,17.20
2018-11-13T03:44:05.078Z,16.27
2018-11-13T03:46:33.199Z,14.67
2018-11-13T03:49:01.366Z,15.93
2018-11-13T03:51:29.546Z,16.73
2018-11-13T03:53:57.649Z,16.53
2018-11-13T03:56:25.810Z,14.23
2018-11-13T03:58:53.908Z,14.63
2018-11-13T04:01:22.045Z,14.60
2018-11-13T04:03:51.089Z,33.43
2018-11-13T04:06:19.216Z,14.77
2018-11-13T04:08:47.326Z,16.47
2018-11-13T04:11:15.478Z,17.00
2018-11-13T04:13:43.584Z,16.60
2018-11-13T04:16:11.673Z,14.40
2018-11-13T04:18:39.832Z,14.70
2018-11-13T04:21:07.969Z,19.00
2018-11-13T04:23:36.111Z,18.00
2018-11-13T04:26:04.253Z,17.93
2018-11-13T04:28:32.503Z,17.83
2018-11-13T04:31:00.817Z,16.27
2018-11-13T04:33:28.996Z,18.10
2018-11-13T04:35:57.254Z,19.00
2018-11-13T04:38:25.476Z,18.47
2018-11-13T04:40:53.604Z,16.33
2018-11-13T04:43:21.912Z,16.83
2018-11-13T04:45:50.095Z,17.20
2018-11-13T04:48:18.231Z,17.10
2018-11-13T04:50:46.351Z,16.00
2018-11-13T04:53:14.495Z,15.30
2018-11-13T04:55:42.634Z,20.67
2018-11-13T04:58:10.793Z,17.67
2018-11-13T05:00:38.932Z,18.43
2018-11-13T05:03:07.201Z,19.13
2018-11-13T05:05:35.323Z,20.93
2018-11-13T05:08:03.523Z,22.80
2018-11-13T05:10:31.715Z,23.03
2018-11-13T05:12:59.963Z,19.87
2018-11-13T05:15:28.167Z,17.83
2018-11-13T05:17:56.459Z,22.77
2018-11-13T05:20:24.597Z,23.17
2018-11-13T05:22:52.845Z,22.47
2018-11-13T05:25:21.509Z,17.50
2018-11-13T05:27:49.711Z,21.33
2018-11-13T05:30:22.079Z,20.97
2018-11-13T05:32:50.437Z,19.70
2018-11-13T05:35:19.657Z,18.40
2018-11-13T05:37:48.194Z,22.43
2018-11-13T05:40:18.103Z,22.27
2018-11-13T05:42:46.342Z,21.37
2018-11-13T05:45:15.865Z,23.93
2018-11-13T05:47:44.248Z,20.40
2018-11-13T05:50:13.754Z,20.83
2018-11-13T05:52:42.745Z,20.37
2018-11-13T05:55:11.225Z,18.30
2018-11-13T05:57:39.596Z,22.57
2018-11-13T06:00:12.392Z,25.57
2018-11-13T06:02:40.530Z,26.50
2018-11-13T06:05:09.362Z,23.73
2018-11-13T06:07:37.475Z,21.63
2018-11-13T06:10:06.751Z,24.90
2018-11-13T06:12:34.916Z,20.10
2018-11-13T06:15:03.072Z,26.30
2018-11-13T06:17:31.203Z,27.03
2018-11-13T06:19:59.331Z,22.90
2018-11-13T06:22:27.490Z,22.77
2018-11-13T06:24:55.633Z,26.97
2018-11-13T06:27:23.908Z,25.13
2018-11-13T06:29:52.174Z,25.93
2018-11-13T06:32:20.463Z,24.57
2018-11-13T06:34:48.824Z,21.30
2018-11-13T06:37:17.116Z,30.30
2018-11-13T06:39:45.517Z,33.43
2018-11-13T06:42:13.757Z,26.70
2018-11-13T06:44:41.985Z,32.47
2018-11-13T06:47:10.239Z,31.20
2018-11-13T06:49:38.503Z,29.90
2018-11-13T06:52:06.607Z,34.90
2018-11-13T06:54:46.346Z,32.40
2018-11-13T06:57:14.549Z,34.87
2018-11-13T06:59:42.708Z,32.03
2018-11-13T07:02:10.853Z,33.07
2018-11-13T07:04:39.007Z,31.53
2018-11-13T07:07:07.124Z,32.70
2018-11-13T07:09:35.302Z,43.00
2018-11-13T07:12:03.462Z,36.37
2018-11-13T07:14:31.644Z,33.17
2018-11-13T07:16:59.797Z,34.73
2018-11-13T07:19:27.982Z,38.93
2018-11-13T07:21:56.192Z,33.10
2018-11-13T07:24:24.322Z,35.43
2018-11-13T07:26:52.489Z,35.23
2018-11-13T07:29:20.692Z,30.73
2018-11-13T07:31:48.886Z,29.30
2018-11-13T07:34:17.136Z,30.50
2018-11-13T07:36:45.235Z,32.90
2018-11-13T07:39:13.367Z,33.70
2018-11-13T07:41:41.734Z,32.10
2018-11-13T07:44:09.866Z,38.70
2018-11-13T07:46:38.061Z,41.20
2018-11-13T07:49:06.134Z,31.50
2018-11-13T07:51:34.422Z,36.43
2018-11-13T07:54:02.818Z,30.13
2018-11-13T07:56:30.978Z,30.33
2018-11-13T07:58:59.120Z,33.53
2018-11-13T08:01:27.287Z,30.53
2018-11-13T08:03:55.468Z,30.87
2018-11-13T08:06:23.681Z,32.10
2018-11-13T08:08:51.867Z,31.30
2018-11-13T08:11:20.027Z,33.47
2018-11-13T08:13:48.236Z,31.23
2018-11-13T08:16:16.396Z,31.47
2018-11-13T08:18:44.577Z,30.90
2018-11-13T08:21:12.778Z,32.43
2018-11-13T08:23:40.908Z,32.00
2018-11-13T08:26:09.297Z,31.70
2018-11-13T08:28:37.502Z,29.87
2018-11-13T08:31:06.249Z,32.90
2018-11-13T08:33:34.370Z,25.57
2018-11-13T08:36:02.670Z,31.47
2018-11-13T08:38:30.765Z,33.73
2018-11-13T08:40:58.928Z,33.27
2018-11-13T08:43:27.068Z,33.20
2018-11-13T08:45:55.196Z,40.80
2018-11-13T08:48:23.320Z,31.13
2018-11-13T08:50:51.515Z,42.20
2018-11-13T08:53:19.646Z,38.60
2018-11-13T08:55:47.885Z,35.53
2018-11-13T08:58:16.071Z,36.53
2018-11-13T09:00:44.190Z,44.60
2018-11-13T09:03:12.317Z,33.77
2018-11-13T09:05:40.448Z,31.47
2018-11-13T09:08:08.633Z,30.63
2018-11-13T09:10:37.897Z,30.90
2018-11-13T09:13:06.473Z,33.03
2018-11-13T09:15:34.650Z,36.10
2018-11-13T09:18:02.797Z,32.73
2018-11-13T09:20:30.957Z,32.67
2018-11-13T09:22:59.171Z,34.17
2018-11-13T09:25:27.369Z,34.10
2018-11-13T09:27:55.553Z,28.93
2018-11-13T09:30:24.032Z,35.00
2018-11-13T09:32:52.162Z,33.63
2018-11-13T09:35:20.637Z,32.33
2018-11-13T09:37:48.793Z,29.33
2018-11-13T09:40:19.265Z,33.30
2018-11-13T09:42:48.639Z,36.20
2018-11-13T09:45:17.207Z,32.50
2018-11-13T09:47:45.371Z,31.53
2018-11-13T09:50:15.135Z,34.33
2018-11-13T09:52:44.643Z,34.57
2018-11-13T09:55:14.261Z,32.03
2018-11-13T09:57:42.525Z,35.90
2018-11-13T10:00:14.347Z,29.20
2018-11-13T10:02:44.057Z,27.33
2018-11-13T10:05:12.138Z,32.50
2018-11-13T10:07:39.944Z,32.17
2018-11-13T10:10:09.134Z,28.77
2018-11-13T10:12:37.354Z,26.73
2018-11-13T10:15:08.075Z,28.60
2018-11-13T10:17:36.226Z,29.17
2018-11-13T10:20:04.389Z,30.20
2018-11-13T10:22:32.576Z,28.67
2018-11-13T10:25:00.736Z,29.40
2018-11-13T10:27:28.926Z,26.17
2018-11-13T10:29:57.377Z,44.53
2018-11-13T10:32:25.526Z,28.50
2018-11-13T10:34:53.691Z,27.77
2018-11-13T10:37:21.959Z,25.43
2018-11-13T10:39:50.204Z,24.30
2018-11-13T10:42:18.322Z,22.47
2018-11-13T10:44:46.531Z,22.80
2018-11-13T10:47:14.709Z,29.23
2018-11-13T10:49:42.886Z,30.07
2018-11-13T10:52:11.018Z,31.50
2018-11-13T10:54:39.337Z,26.33
2018-11-13T10:57:07.573Z,23.33
2018-11-13T10:59:35.725Z,23.80
2018-11-13T11:03:11.878Z,24.37
2018-11-13T11:05:40.242Z,22.00
2018-11-13T11:08:08.473Z,19.17
2018-11-13T11:10:36.638Z,20.70
2018-11-13T11:13:05.489Z,21.70
2018-11-13T11:15:33.408Z,23.80
2018-11-13T11:18:01.627Z,20.33
2018-11-13T11:20:29.801Z,22.47
2018-11-13T11:22:57.954Z,26.40
2018-11-13T11:25:26.317Z,18.77
2018-11-13T11:27:54.631Z,23.40
2018-11-13T11:30:22.707Z,20.67
2018-11-13T11:32:51.308Z,23.53
2018-11-13T11:35:19.442Z,21.23
2018-11-13T11:37:47.617Z,22.53
2018-11-13T11:40:15.802Z,23.93
2018-11-13T11:42:43.978Z,23.70
2018-11-13T11:45:13.443Z,23.23
2018-11-13T11:47:41.740Z,22.77
2018-11-13T11:50:10.972Z,23.83
2018-11-13T11:52:39.184Z,25.17
2018-11-13T11:55:08.213Z,25.97
2018-11-13T11:57:36.476Z,28.17
2018-11-13T12:00:07.070Z,25.10
2018-11-13T12:02:35.248Z,24.90
2018-11-13T12:05:03.569Z,25.83
2018-11-13T12:07:31.899Z,25.83
2018-11-13T12:10:00.293Z,24.57
2018-11-13T12:12:28.501Z,26.10
2018-11-13T12:14:56.842Z,26.47
2018-11-13T12:17:25.055Z,24.67
2018-11-13T12:19:53.431Z,26.00
2018-11-13T12:22:21.660Z,30.93
2018-11-13T12:24:49.876Z,25.63
2018-11-13T12:27:18.293Z,26.00
2018-11-13T12:29:46.512Z,29.70
2018-11-13T12:32:14.719Z,32.43
2018-11-13T12:34:42.876Z,26.10
2018-11-13T12:37:11.079Z,25.13
2018-11-13T12:39:39.345Z,23.47
2018-11-13T12:42:07.644Z,22.23
2018-11-13T12:44:35.799Z,19.97
2018-11-13T12:47:04.261Z,21.83
2018-11-13T12:49:32.435Z,25.63
2018-11-13T12:52:06.028Z,26.67
2018-11-13T12:54:34.217Z,24.77
2018-11-13T12:57:02.446Z,22.17
2018-11-13T12:59:30.663Z,23.27
2018-11-13T13:01:58.815Z,28.63
2018-11-13T13:04:27.057Z,26.63
2018-11-13T13:06:55.218Z,24.30
2018-11-13T13:09:23.394Z,23.70
2018-11-13T13:11:52.679Z,24.43
2018-11-13T13:14:20.819Z,24.50
2018-11-13T13:16:48.979Z,26.63
2018-11-13T13:19:17.184Z,22.17
2018-11-13T13:21:45.323Z,23.30
2018-11-13T13:24:13.483Z,25.87
2018-11-13T13:26:41.665Z,22.67
2018-11-13T13:29:09.840Z,21.87
2018-11-13T13:31:38.026Z,22.50
2018-11-13T13:34:06.175Z,20.50
2018-11-13T13:36:34.501Z,26.60
2018-11-13T13:39:02.702Z,24.60
2018-11-13T13:41:30.970Z,23.53
2018-11-13T13:43:59.168Z,23.70
2018-11-13T13:46:27.327Z,22.47
2018-11-13T13:48:55.474Z,20.73
2018-11-13T13:51:23.647Z,21.17
2018-11-13T13:53:51.987Z,20.60
2018-11-13T13:56:20.081Z,18.77
2018-11-13T13:58:48.383Z,20.27
2018-11-13T14:01:16.610Z,21.30
2018-11-13T14:03:44.977Z,19.43
2018-11-13T14:06:13.258Z,21.17
2018-11-13T14:08:41.947Z,18.10
2018-11-13T14:11:10.074Z,21.47
2018-11-13T14:13:38.250Z,17.33
2018-11-13T14:16:06.728Z,19.23
2018-11-13T14:18:34.936Z,16.30
2018-11-13T14:21:03.235Z,18.10
2018-11-13T14:23:31.265Z,17.57
2018-11-13T14:25:59.748Z,19.60
2018-11-13T14:28:27.929Z,12.40
2018-11-13T14:30:56.101Z,14.43
2018-11-13T14:33:24.245Z,14.83
2018-11-13T14:35:52.410Z,19.70
2018-11-13T14:38:20.611Z,17.10
2018-11-13T14:40:49.208Z,15.00
2018-11-13T14:43:17.373Z,15.40
2018-11-13T14:45:46.173Z,16.80
2018-11-13T14:48:14.418Z,16.17
2018-11-13T14:50:43.259Z,15.47
2018-11-13T14:53:12.123Z,16.53
2018-11-13T14:55:42.173Z,12.80
2018-11-13T14:58:11.459Z,16.00
2018-11-13T15:00:40.037Z,18.97
2018-11-13T15:03:09.658Z,16.23
2018-11-13T15:05:37.819Z,14.10
2018-11-13T15:08:07.178Z,14.43
2018-11-13T15:10:40.140Z,16.43
2018-11-13T15:13:08.725Z,15.63
2018-11-13T15:15:36.849Z,21.77
2018-11-13T15:18:05.325Z,19.10
2018-11-13T15:20:33.566Z,19.20
2018-11-13T15:23:01.801Z,16.33
2018-11-13T15:25:30.033Z,19.90
2018-11-13T15:27:58.155Z,17.97
2018-11-13T15:30:28.169Z,16.00
2018-11-13T15:32:59.750Z,18.80
2018-11-13T15:35:27.954Z,23.07
2018-11-13T15:37:56.174Z,17.13
2018-11-13T15:40:26.772Z,18.10
2018-11-13T15:42:54.903Z,12.13
2018-11-13T15:45:23.088Z,11.20
2018-11-13T15:47:52.118Z,5.10
2018-11-13T15:50:24.703Z,4.93
2018-11-13T15:52:52.922Z,4.53
2018-11-13T15:55:21.092Z,6.07
2018-11-13T15:57:49.546Z,6.10
2018-11-13T16:00:23.915Z,3.83
2018-11-13T16:02:52.580Z,5.67
2018-11-13T16:05:26.227Z,8.03
2018-11-13T16:07:55.576Z,6.33
2018-11-13T16:10:23.946Z,11.40
2018-11-13T16:12:52.187Z,5.33
2018-11-13T16:15:21.408Z,5.77
2018-11-13T16:17:50.368Z,9.73
2018-11-13T16:20:18.690Z,6.23
2018-11-13T16:22:46.835Z,5.33
2018-11-13T16:25:15.011Z,10.30
2018-11-13T16:27:43.197Z,10.40
2018-11-13T16:30:15.370Z,4.77
2018-11-13T16:32:44.522Z,7.03
2018-11-13T16:35:13.829Z,6.43
2018-11-13T16:37:43.268Z,13.23
2018-11-13T16:40:28.335Z,7.10
2018-11-13T16:42:56.469Z,6.53
2018-11-13T16:45:25.468Z,7.83
2018-11-13T16:47:54.240Z,6.87
2018-11-13T16:50:23.548Z,9.17
2018-11-13T16:52:51.836Z,6.63
2018-11-13T16:55:25.261Z,6.43
2018-11-13T16:57:54.059Z,11.93
2018-11-13T17:00:22.941Z,8.00
2018-11-13T17:02:51.119Z,8.87
2018-11-13T17:05:20.319Z,8.67
2018-11-13T17:07:48.470Z,8.87
2018-11-13T17:10:18.052Z,6.30
2018-11-13T17:12:46.492Z,5.03
2018-11-13T17:15:17.478Z,5.60
2018-11-13T17:17:46.546Z,5.03
2018-11-13T17:20:15.057Z,4.87
2018-11-13T17:22:43.706Z,5.00
2018-11-13T17:25:13.197Z,6.83
2018-11-13T17:27:42.510Z,5.40
2018-11-13T17:30:12.901Z,3.93
2018-11-13T17:32:41.552Z,2.80
2018-11-13T17:35:10.842Z,2.73
2018-11-13T17:37:38.992Z,3.00
2018-11-13T17:40:09.944Z,4.63
2018-11-13T17:42:38.241Z,5.57
2018-11-13T17:45:09.171Z,2.00
2018-11-13T17:47:37.587Z,2.33
2018-11-13T17:50:10.611Z,1.97
2018-11-13T17:52:38.794Z,4.67
2018-11-13T17:55:14.783Z,4.10
2018-11-13T17:57:43.936Z,3.03
2018-11-13T18:00:18.053Z,3.93
2018-11-13T18:02:47.533Z,3.00
2018-11-13T18:05:16.048Z,3.17
2018-11-13T18:07:44.617Z,2.77
2018-11-13T18:10:12.762Z,3.00
2018-11-13T18:12:40.945Z,8.53
2018-11-13T18:15:12.468Z,3.07
2018-11-13T18:17:40.610Z,3.03
2018-11-13T18:20:10.922Z,3.07
2018-11-13T18:22:39.392Z,3.27
2018-11-13T18:25:08.190Z,4.27
2018-11-13T18:27:37.135Z,3.73
2018-11-13T18:30:07.807Z,7.47
2018-11-13T18:32:36.004Z,3.87
2018-11-13T18:35:04.325Z,5.03
2018-11-13T18:37:32.610Z,6.07
2018-11-13T18:40:00.736Z,2.43
2018-11-13T18:42:28.979Z,4.33
2018-11-13T18:44:57.347Z,8.00
2018-11-13T18:47:25.541Z,7.97
2018-11-13T18:49:53.782Z,7.50
2018-11-13T18:52:22.153Z,4.33
2018-11-13T18:54:50.406Z,7.27
2018-11-13T18:57:18.657Z,3.80
2018-11-13T18:59:46.916Z,6.93
2018-11-13T19:02:15.240Z,4.13
2018-11-13T19:04:43.745Z,5.30
2018-11-13T19:07:13.074Z,5.47
2018-11-13T19:09:41.295Z,5.73
2018-11-13T19:12:09.552Z,4.40
2018-11-13T19:14:37.822Z,5.73
2018-11-13T19:17:06.067Z,6.67
2018-11-13T19:19:34.439Z,5.13
2018-11-13T19:22:02.735Z,5.60
2018-11-13T19:24:30.991Z,5.00
2018-11-13T19:26:59.240Z,5.13
2018-11-13T19:29:27.590Z,4.80
2018-11-13T19:31:55.790Z,7.27
2018-11-13T19:34:24.390Z,5.97
2018-11-13T19:36:52.820Z,5.47
2018-11-13T19:39:21.319Z,6.90
2018-11-13T19:41:49.613Z,8.47
2018-11-13T19:44:17.949Z,7.07
2018-11-13T19:46:46.262Z,9.83
2018-11-13T19:49:14.579Z,7.87
2018-11-13T19:51:43.122Z,9.43
2018-11-13T19:54:11.412Z,5.27
2018-11-13T19:56:40.682Z,7.83
2018-11-13T19:59:08.999Z,6.80
2018-11-13T20:01:37.436Z,16.93
2018-11-13T20:04:06.235Z,7.93
2018-11-13T20:06:34.451Z,9.23
2018-11-13T20:09:03.445Z,7.80
2018-11-13T20:11:35.924Z,8.87
2018-11-13T20:14:04.209Z,8.13
2018-11-13T20:16:32.745Z,8.80
2018-11-13T20:19:00.998Z,8.10
2018-11-13T20:21:29.334Z,8.87
2018-11-13T20:23:58.563Z,11.90
2018-11-13T20:26:26.876Z,8.97
2018-11-13T20:28:55.393Z,10.67
2018-11-13T20:31:23.721Z,8.60
2018-11-13T20:33:51.970Z,8.73
2018-11-13T20:36:20.296Z,8.60
2018-11-13T20:38:48.587Z,9.43
2018-11-13T20:41:16.951Z,7.13
2018-11-13T20:43:45.230Z,9.70
2018-11-13T20:46:13.912Z,7.93
2018-11-13T20:48:42.853Z,13.27
2018-11-13T20:51:11.142Z,7.70
2018-11-13T20:53:39.540Z,7.93
2018-11-13T20:56:07.822Z,7.20
2018-11-13T20:58:36.123Z,9.23
2018-11-13T21:01:04.406Z,10.97
2018-11-13T21:03:32.707Z,7.90
2018-11-13T21:06:01.045Z,10.43
2018-11-13T21:08:29.281Z,9.93
2018-11-13T21:10:59.310Z,9.63
2018-11-13T21:13:27.265Z,13.93
2018-11-13T21:15:55.818Z,13.70
2018-11-13T21:18:24.273Z,10.80
2018-11-13T21:20:52.527Z,11.10
2018-11-13T21:23:20.817Z,12.73
2018-11-13T21:25:49.049Z,11.83
2018-11-13T21:28:17.410Z,11.70
2018-11-13T21:30:45.811Z,18.93
2018-11-13T21:33:14.703Z,37.63
2018-11-13T21:35:43.167Z,39.97
2018-11-13T21:38:11.431Z,18.67
2018-11-13T21:40:39.700Z,14.43
2018-11-13T21:43:08.078Z,12.93
2018-11-13T21:45:36.409Z,14.83
2018-11-13T21:48:05.216Z,9.20
2018-11-13T21:50:33.526Z,14.57
2018-11-13T21:53:02.590Z,11.47
2018-11-13T21:55:30.865Z,13.23
2018-11-13T21:57:59.015Z,13.13
2018-11-13T22:00:29.358Z,16.93
2018-11-13T22:03:00.004Z,10.73
2018-11-13T22:05:29.201Z,9.43
2018-11-13T22:07:57.458Z,10.50
2018-11-13T22:10:25.601Z,15.77
2018-11-13T22:12:54.138Z,10.33
2018-11-13T22:15:23.481Z,12.17
2018-11-13T22:17:51.535Z,10.37
2018-11-13T22:20:20.431Z,17.23
2018-11-13T22:22:49.523Z,10.93
2018-11-13T22:25:21.001Z,11.77
2018-11-13T22:27:50.352Z,12.57
2018-11-13T22:30:21.802Z,13.57
2018-11-13T22:32:49.977Z,13.07
2018-11-13T22:35:18.713Z,12.10
2018-11-13T22:37:47.011Z,12.33
2018-11-13T22:40:16.870Z,15.87
2018-11-13T22:42:45.245Z,11.90
2018-11-13T22:45:16.663Z,10.90
2018-11-13T22:47:44.896Z,9.53
2018-11-13T22:50:16.333Z,12.03
2018-11-13T22:52:44.900Z,14.60
2018-11-13T22:55:13.821Z,13.90
2018-11-13T22:57:42.951Z,12.83
2018-11-13T23:00:15.767Z,13.70
2018-11-13T23:02:43.801Z,16.87
2018-11-13T23:05:11.976Z,13.30
2018-11-13T23:07:40.183Z,14.43
2018-11-13T23:10:10.218Z,11.43
2018-11-13T23:12:38.526Z,16.43
2018-11-13T23:15:09.038Z,16.93
2018-11-13T23:17:37.162Z,11.63
2018-11-13T23:43:06.192Z,13.30
2018-11-13T23:45:34.602Z,9.97
2018-11-13T23:48:02.805Z,8.07
2018-11-13T23:50:31.059Z,15.40
2018-11-13T23:52:59.489Z,14.23
2018-11-13T23:55:27.876Z,14.50
2018-11-13T23:57:56.053Z,13.07
